Time;durP1;ratioP1;P1;durP2;ratioP2;P2;SDS_P1;SDS_P2;PMS_P1;PMS_P2;Temp;Humidity;BMP_temperature;BMP_pressure;BME280_temperature;BME280_humidity;BME280_pressure;Samples;Min_cycle;Max_cycle;Signal;HPM_P1;HPM_P2
2022/12/07 00:01:19;;;;;;;47.40;21.13;;;;;;;;;;5033716;28;20749;-39
2022/12/07 00:03:47;;;;;;;42.63;19.17;;;;;;;;;;5034695;28;20201;-39
2022/12/07 00:06:16;;;;;;;58.50;21.40;;;;;;;;;;5034690;28;20204;-41
2022/12/07 00:08:43;;;;;;;45.53;20.03;;;;;;;;;;5034572;28;20235;-39
2022/12/07 00:11:13;;;;;;;42.80;19.33;;;;;;;;;;5034527;28;20208;-39
2022/12/07 00:13:40;;;;;;;39.03;19.57;;;;;;;;;;5036395;28;20204;-39
2022/12/07 00:16:11;;;;;;;37.57;18.83;;;;;;;;;;5038500;28;20538;-39
2022/12/07 00:18:39;;;;;;;39.87;19.93;;;;;;;;;;5038553;28;20232;-39
2022/12/07 00:21:29;;;;;;;39.17;19.70;;;;;;;;;;5038717;28;20196;-40
2022/12/07 00:23:56;;;;;;;234.00;161.97;;;;;;;;;;5037259;28;20228;-39
2022/12/07 00:26:26;;;;;;;160.97;111.67;;;;;;;;;;5038411;28;20189;-39
2022/12/07 00:28:55;;;;;;;53.40;24.43;;;;;;;;;;5038296;28;20280;-40
2022/12/07 00:31:29;;;;;;;47.07;22.47;;;;;;;;;;5038446;28;20675;-39
2022/12/07 00:33:57;;;;;;;40.83;18.23;;;;;;;;;;5038498;28;20280;-41
2022/12/07 00:36:25;;;;;;;38.73;19.17;;;;;;;;;;5038559;28;20228;-39
2022/12/07 00:38:54;;;;;;;38.33;17.80;;;;;;;;;;5037911;28;20634;-39
2022/12/07 00:41:23;;;;;;;33.73;16.97;;;;;;;;;;5038055;28;20225;-39
2022/12/07 00:43:51;;;;;;;36.77;19.00;;;;;;;;;;5038013;28;20209;-40
2022/12/07 00:46:19;;;;;;;31.60;16.67;;;;;;;;;;5037951;28;20649;-39
2022/12/07 00:48:47;;;;;;;36.43;19.23;;;;;;;;;;5037909;28;20283;-39
2022/12/07 00:51:16;;;;;;;34.60;17.63;;;;;;;;;;5037636;28;20508;-39
2022/12/07 00:53:43;;;;;;;36.07;18.23;;;;;;;;;;5036969;28;20215;-39
2022/12/07 00:56:17;;;;;;;45.93;19.83;;;;;;;;;;5037720;28;20215;-39
2022/12/07 00:58:55;;;;;;;38.60;19.03;;;;;;;;;;5037716;28;20284;-41
2022/12/07 01:01:24;;;;;;;43.43;21.20;;;;;;;;;;5037683;28;20270;-39
2022/12/07 01:03:52;;;;;;;50.10;22.60;;;;;;;;;;5037659;28;20287;-40
2022/12/07 01:06:20;;;;;;;41.30;22.10;;;;;;;;;;5037839;28;20208;-39
2022/12/07 01:08:48;;;;;;;48.20;24.10;;;;;;;;;;5037805;28;20239;-39
2022/12/07 01:11:18;;;;;;;49.57;24.30;;;;;;;;;;5037780;28;20207;-39
2022/12/07 01:13:45;;;;;;;60.17;27.13;;;;;;;;;;5037398;28;20243;-39
2022/12/07 01:16:14;;;;;;;56.50;26.87;;;;;;;;;;5037380;28;20212;-40
2022/12/07 01:18:42;;;;;;;56.13;27.37;;;;;;;;;;5037147;28;20711;-39
2022/12/07 01:21:12;;;;;;;54.87;26.23;;;;;;;;;;5037011;28;20703;-38
2022/12/07 01:23:39;;;;;;;56.10;26.30;;;;;;;;;;5037293;28;20680;-39
2022/12/07 01:26:10;;;;;;;59.57;26.03;;;;;;;;;;5036187;28;20266;-41
2022/12/07 01:28:37;;;;;;;57.77;23.40;;;;;;;;;;5037956;28;20212;-39
2022/12/07 01:31:11;;;;;;;59.43;25.90;;;;;;;;;;5035835;28;20539;-39
2022/12/07 01:33:39;;;;;;;58.27;24.27;;;;;;;;;;5036948;28;20212;-39
2022/12/07 01:36:14;;;;;;;54.77;21.40;;;;;;;;;;5037642;28;20205;-41
2022/12/07 01:38:41;;;;;;;46.70;21.97;;;;;;;;;;5037131;28;20521;-39
2022/12/07 01:41:08;;;;;;;54.00;22.17;;;;;;;;;;5036965;28;20204;-38
2022/12/07 01:43:35;;;;;;;51.57;23.67;;;;;;;;;;5036962;28;20288;-39
2022/12/07 01:46:03;;;;;;;51.87;22.83;;;;;;;;;;5037064;28;20204;-40
2022/12/07 01:48:41;;;;;;;47.80;21.40;;;;;;;;;;5036872;28;20205;-39
2022/12/07 01:51:11;;;;;;;48.73;21.23;;;;;;;;;;5035599;28;20208;-39
2022/12/07 01:53:41;;;;;;;49.97;21.20;;;;;;;;;;5036593;28;20284;-39
2022/12/07 01:56:11;;;;;;;44.27;21.10;;;;;;;;;;5037720;28;20509;-41
2022/12/07 01:58:38;;;;;;;52.43;22.43;;;;;;;;;;5036391;28;20220;-41
2022/12/07 02:01:05;;;;;;;50.27;22.97;;;;;;;;;;5035701;28;20204;-38
2022/12/07 02:03:37;;;;;;;58.97;24.10;;;;;;;;;;5036014;28;20295;-41
2022/12/07 02:06:06;;;;;;;62.57;22.17;;;;;;;;;;5035449;28;20193;-41
2022/12/07 02:08:33;;;;;;;60.83;23.07;;;;;;;;;;5035679;28;20577;-40
2022/12/07 02:11:01;;;;;;;56.00;24.10;;;;;;;;;;5035579;28;20197;-40
2022/12/07 02:13:31;;;;;;;66.03;23.07;;;;;;;;;;5036430;28;20278;-39
2022/12/07 02:16:04;;;;;;;62.77;24.53;;;;;;;;;;5035626;28;20204;-40
2022/12/07 02:18:38;;;;;;;63.10;25.90;;;;;;;;;;5036204;28;20228;-40
2022/12/07 02:21:11;;;;;;;72.47;25.07;;;;;;;;;;5036394;28;20188;-39
2022/12/07 02:23:53;;;;;;;60.43;25.27;;;;;;;;;;5035592;28;20258;-39
2022/12/07 02:26:39;;;;;;;71.67;24.27;;;;;;;;;;5036035;28;20205;-39
2022/12/07 02:29:23;;;;;;;61.47;24.30;;;;;;;;;;5036436;28;20247;-39
2022/12/07 02:32:18;;;;;;;71.63;25.67;;;;;;;;;;5035538;28;20227;-39
2022/12/07 02:34:48;;;;;;;74.97;25.97;;;;;;;;;;5035206;28;20216;-38
2022/12/07 02:37:40;;;;;;;64.30;25.33;;;;;;;;;;5036517;28;20232;-39
2022/12/07 02:40:27;;;;;;;76.80;26.50;;;;;;;;;;5036300;28;20282;-40
2022/12/07 02:43:25;;;;;;;72.03;25.60;;;;;;;;;;5034969;28;20197;-39
2022/12/07 02:45:55;;;;;;;70.20;28.23;;;;;;;;;;5010804;28;20271;-39
2022/12/07 02:48:23;;;;;;;74.83;28.00;;;;;;;;;;5035792;28;20196;-40
2022/12/07 02:50:51;;;;;;;76.03;30.63;;;;;;;;;;5035730;28;20505;-40
2022/12/07 02:53:35;;;;;;;83.93;31.87;;;;;;;;;;5035814;28;20538;-40
2022/12/07 02:56:17;;;;;;;77.17;25.43;;;;;;;;;;5035801;28;20598;-39
2022/12/07 02:59:15;;;;;;;70.60;25.83;;;;;;;;;;5035307;28;20676;-39
2022/12/07 03:01:58;;;;;;;63.93;25.67;;;;;;;;;;5035239;28;20622;-39
2022/12/07 03:04:56;;;;;;;74.03;25.17;;;;;;;;;;5035264;28;20637;-40
2022/12/07 03:07:26;;;;;;;69.57;24.77;;;;;;;;;;5035369;28;20560;-39
2022/12/07 03:10:03;;;;;;;78.77;24.87;;;;;;;;;;5035615;28;20197;-39
2022/12/07 03:12:46;;;;;;;66.53;24.67;;;;;;;;;;5034444;28;20561;-39
2022/12/07 03:15:35;;;;;;;67.07;25.03;;;;;;;;;;5035612;28;20189;-39
2022/12/07 03:18:04;;;;;;;66.37;25.57;;;;;;;;;;5018043;28;20228;-39
2022/12/07 03:20:32;;;;;;;65.87;26.70;;;;;;;;;;5034560;28;20240;-39
2022/12/07 03:22:59;;;;;;;64.73;26.53;;;;;;;;;;5034459;28;20570;-39
2022/12/07 03:25:27;;;;;;;68.30;27.03;;;;;;;;;;5034773;28;20244;-39
2022/12/07 03:27:58;;;;;;;59.50;24.97;;;;;;;;;;5034282;28;20224;-39
2022/12/07 03:30:29;;;;;;;65.60;28.57;;;;;;;;;;5034842;28;20184;-39
2022/12/07 03:33:01;;;;;;;67.40;28.13;;;;;;;;;;5034856;28;20205;-39
2022/12/07 03:35:37;;;;;;;68.83;28.87;;;;;;;;;;5033843;28;20215;-39
2022/12/07 03:38:23;;;;;;;64.67;27.57;;;;;;;;;;5033783;28;20220;-39
2022/12/07 03:40:56;;;;;;;64.13;28.47;;;;;;;;;;5034061;28;20270;-40
2022/12/07 03:43:23;;;;;;;64.80;28.10;;;;;;;;;;5034918;28;20641;-40
2022/12/07 03:46:28;;;;;;;58.53;27.30;;;;;;;;;;5033787;28;20232;-39
2022/12/07 03:49:12;;;;;;;66.30;28.43;;;;;;;;;;5039766;28;20243;-41
2022/12/07 03:51:56;;;;;;;56.03;26.90;;;;;;;;;;5040527;28;20188;-39
2022/12/07 03:54:28;;;;;;;59.93;26.67;;;;;;;;;;5041256;28;20649;-39
2022/12/07 03:56:56;;;;;;;58.63;26.07;;;;;;;;;;5041107;28;20212;-40
2022/12/07 03:59:23;;;;;;;57.37;27.70;;;;;;;;;;5041377;28;20208;-41
2022/12/07 04:02:02;;;;;;;60.27;28.43;;;;;;;;;;5040361;28;20327;-40
2022/12/07 04:04:29;;;;;;;56.10;27.73;;;;;;;;;;5041219;28;20653;-39
2022/12/07 04:06:56;;;;;;;58.37;28.00;;;;;;;;;;5041085;28;20215;-38
2022/12/07 04:09:23;;;;;;;63.43;28.57;;;;;;;;;;5041149;28;20192;-40
2022/12/07 04:11:50;;;;;;;57.73;27.17;;;;;;;;;;5041156;28;20204;-39
2022/12/07 04:14:20;;;;;;;56.30;26.40;;;;;;;;;;5041336;28;20232;-39
2022/12/07 04:16:49;;;;;;;57.50;27.57;;;;;;;;;;5041476;28;20219;-39
2022/12/07 04:19:18;;;;;;;58.43;26.23;;;;;;;;;;5041621;28;20227;-41
2022/12/07 04:21:46;;;;;;;53.30;27.43;;;;;;;;;;5041268;28;20215;-39
2022/12/07 04:24:14;;;;;;;53.03;28.13;;;;;;;;;;5041158;28;20237;-40
2022/12/07 04:26:42;;;;;;;53.53;25.70;;;;;;;;;;5041349;28;20212;-39
2022/12/07 04:29:09;;;;;;;52.50;26.37;;;;;;;;;;5040384;28;20291;-40
2022/12/07 04:31:37;;;;;;;43.77;24.07;;;;;;;;;;5040804;28;20216;-39
2022/12/07 04:34:05;;;;;;;49.03;24.27;;;;;;;;;;5041097;28;20262;-40
2022/12/07 04:36:32;;;;;;;44.13;23.93;;;;;;;;;;5040781;28;20220;-40
2022/12/07 04:38:59;;;;;;;43.93;23.67;;;;;;;;;;5041287;28;20282;-39
2022/12/07 04:41:27;;;;;;;48.60;24.07;;;;;;;;;;5040817;28;20204;-38
2022/12/07 04:43:59;;;;;;;39.93;22.93;;;;;;;;;;5041072;28;20204;-39
2022/12/07 04:46:28;;;;;;;38.43;21.30;;;;;;;;;;5041150;28;20189;-41
2022/12/07 04:48:56;;;;;;;38.13;23.20;;;;;;;;;;5040186;28;20278;-41
2022/12/07 04:51:26;;;;;;;40.23;21.83;;;;;;;;;;5040600;28;20215;-39
2022/12/07 04:53:53;;;;;;;31.83;19.10;;;;;;;;;;5039196;28;20201;-41
2022/12/07 04:56:22;;;;;;;28.33;18.27;;;;;;;;;;5033753;28;20208;-40
2022/12/07 04:58:49;;;;;;;29.43;17.60;;;;;;;;;;5029594;28;20216;-42
2022/12/07 05:01:16;;;;;;;28.20;17.53;;;;;;;;;;5023328;28;20232;-41
2022/12/07 05:03:44;;;;;;;26.70;16.00;;;;;;;;;;5024877;28;20224;-38
2022/12/07 05:06:12;;;;;;;28.27;15.60;;;;;;;;;;5024074;28;20700;-40
2022/12/07 05:08:39;;;;;;;60.10;36.50;;;;;;;;;;5033303;28;20249;-39
2022/12/07 05:11:07;;;;;;;34.30;22.23;;;;;;;;;;5026896;28;20239;-41
2022/12/07 05:13:35;;;;;;;38.77;24.60;;;;;;;;;;5034830;28;20278;-39
2022/12/07 05:16:03;;;;;;;25.23;16.80;;;;;;;;;;5036117;28;20661;-38
2022/12/07 05:18:30;;;;;;;19.63;13.00;;;;;;;;;;5036464;28;20250;-39
2022/12/07 05:20:57;;;;;;;18.90;13.07;;;;;;;;;;5036405;28;20213;-39
2022/12/07 05:23:24;;;;;;;20.83;12.57;;;;;;;;;;5036278;28;20616;-39
2022/12/07 05:25:51;;;;;;;16.40;11.20;;;;;;;;;;5036755;28;20247;-41
2022/12/07 05:28:18;;;;;;;17.63;10.33;;;;;;;;;;5036492;28;20614;-39
2022/12/07 05:30:45;;;;;;;14.33;10.00;;;;;;;;;;5035998;28;20685;-41
2022/12/07 05:33:12;;;;;;;21.27;11.00;;;;;;;;;;5036284;28;20225;-39
2022/12/07 05:35:40;;;;;;;13.27;8.27;;;;;;;;;;5036433;28;20229;-39
2022/12/07 05:38:07;;;;;;;17.83;11.47;;;;;;;;;;5036085;28;20236;-38
2022/12/07 05:40:34;;;;;;;17.63;12.83;;;;;;;;;;5036199;28;20707;-39
2022/12/07 05:43:01;;;;;;;18.97;13.37;;;;;;;;;;5035811;28;20282;-38
2022/12/07 05:45:31;;;;;;;12.67;8.73;;;;;;;;;;5036046;28;20225;-40
2022/12/07 05:47:58;;;;;;;11.53;7.97;;;;;;;;;;5035478;28;20248;-39
2022/12/07 05:50:25;;;;;;;10.80;6.80;;;;;;;;;;5036309;28;20224;-39
2022/12/07 05:52:59;;;;;;;10.70;6.97;;;;;;;;;;5035195;28;20223;-39
2022/12/07 05:55:27;;;;;;;12.40;7.63;;;;;;;;;;5034689;28;20557;-42
2022/12/07 06:00:39;;;;;;;9.97;6.83;;;;;;;;;;5034452;28;20255;-40
2022/12/07 06:03:06;;;;;;;13.23;9.00;;;;;;;;;;5034065;28;20225;-40
2022/12/07 06:05:33;;;;;;;9.20;6.70;;;;;;;;;;5035679;28;20294;-40
2022/12/07 06:08:00;;;;;;;8.83;6.83;;;;;;;;;;5035155;28;20657;-40
2022/12/07 06:10:32;;;;;;;9.63;7.07;;;;;;;;;;5033955;28;20221;-40
2022/12/07 06:12:59;;;;;;;12.70;7.30;;;;;;;;;;5035054;28;20263;-39
2022/12/07 06:15:26;;;;;;;9.17;6.10;;;;;;;;;;5034894;28;20681;-39
2022/12/07 06:17:53;;;;;;;9.63;5.80;;;;;;;;;;5034967;28;20657;-40
2022/12/07 06:20:20;;;;;;;9.13;5.77;;;;;;;;;;5035794;28;20205;-39
2022/12/07 06:22:47;;;;;;;23.27;13.50;;;;;;;;;;5034334;28;20212;-41
2022/12/07 06:25:14;;;;;;;13.23;6.70;;;;;;;;;;5035460;28;20247;-43
2022/12/07 06:27:41;;;;;;;13.07;7.40;;;;;;;;;;5035121;28;20208;-39
2022/12/07 06:30:09;;;;;;;11.70;7.43;;;;;;;;;;5035105;28;20219;-39
2022/12/07 06:32:36;;;;;;;12.63;8.03;;;;;;;;;;5034406;28;20200;-39
2022/12/07 06:35:04;;;;;;;14.10;7.93;;;;;;;;;;5034578;28;20323;-39
2022/12/07 06:37:31;;;;;;;12.03;7.33;;;;;;;;;;5035705;28;20200;-39
2022/12/07 06:39:58;;;;;;;12.03;7.63;;;;;;;;;;5035151;28;20212;-42
2022/12/07 06:42:25;;;;;;;12.83;7.23;;;;;;;;;;5034865;28;20204;-40
2022/12/07 06:44:52;;;;;;;15.23;8.53;;;;;;;;;;5033859;28;20212;-39
2022/12/07 06:47:19;;;;;;;11.23;7.40;;;;;;;;;;5034976;28;20304;-39
2022/12/07 06:50:07;;;;;;;10.77;7.73;;;;;;;;;;5035029;28;20193;-40
2022/12/07 06:52:34;;;;;;;14.03;8.47;;;;;;;;;;5035157;28;20594;-42
2022/12/07 06:55:01;;;;;;;12.67;7.90;;;;;;;;;;5034330;28;20192;-40
2022/12/07 06:57:28;;;;;;;16.00;9.47;;;;;;;;;;5034371;28;20577;-39
2022/12/07 06:59:55;;;;;;;17.50;9.70;;;;;;;;;;5033619;28;20225;-39
2022/12/07 07:02:22;;;;;;;15.90;8.93;;;;;;;;;;5034650;28;20224;-39
2022/12/07 07:04:49;;;;;;;15.00;8.23;;;;;;;;;;5034798;28;20292;-40
2022/12/07 07:07:16;;;;;;;18.17;10.70;;;;;;;;;;5033988;28;20205;-40
2022/12/07 07:09:43;;;;;;;32.03;17.00;;;;;;;;;;5034683;28;20687;-39
2022/12/07 07:12:10;;;;;;;14.60;8.93;;;;;;;;;;5034772;28;20232;-39
2022/12/07 07:14:37;;;;;;;11.03;7.63;;;;;;;;;;5033375;28;20197;-42
2022/12/07 07:17:04;;;;;;;19.23;9.37;;;;;;;;;;5034505;28;20554;-39
2022/12/07 07:19:31;;;;;;;13.57;8.80;;;;;;;;;;5035047;28;20224;-39
2022/12/07 07:21:58;;;;;;;16.07;9.93;;;;;;;;;;5034718;28;20299;-41
2022/12/07 07:24:26;;;;;;;16.53;10.67;;;;;;;;;;5034482;28;20251;-42
2022/12/07 07:26:53;;;;;;;16.43;10.23;;;;;;;;;;5035051;28;20303;-39
2022/12/07 07:29:20;;;;;;;18.67;10.17;;;;;;;;;;5034530;28;20634;-39
2022/12/07 07:31:47;;;;;;;18.57;10.73;;;;;;;;;;5034786;28;20204;-39
2022/12/07 07:34:15;;;;;;;15.87;10.00;;;;;;;;;;5034644;28;20273;-43
2022/12/07 07:36:42;;;;;;;13.70;9.10;;;;;;;;;;5034320;28;20442;-42
2022/12/07 07:39:10;;;;;;;15.90;10.27;;;;;;;;;;5034631;28;20662;-39
2022/12/07 07:41:36;;;;;;;17.50;10.33;;;;;;;;;;5033624;28;20201;-40
2022/12/07 07:44:04;;;;;;;20.63;10.80;;;;;;;;;;5033511;28;20227;-40
2022/12/07 07:46:32;;;;;;;18.57;10.67;;;;;;;;;;5034721;28;20212;-39
2022/12/07 07:49:00;;;;;;;18.53;12.20;;;;;;;;;;5033276;28;20622;-39
2022/12/07 07:51:27;;;;;;;16.83;10.93;;;;;;;;;;5034074;28;20267;-39
2022/12/07 07:53:54;;;;;;;18.10;12.00;;;;;;;;;;5033848;28;20211;-40
2022/12/07 07:56:21;;;;;;;16.93;11.20;;;;;;;;;;5033364;28;20688;-39
2022/12/07 07:58:52;;;;;;;36.37;16.10;;;;;;;;;;5033210;28;20274;-42
2022/12/07 08:01:21;;;;;;;50.90;21.50;;;;;;;;;;5033008;28;20291;-38
2022/12/07 08:03:49;;;;;;;20.13;11.97;;;;;;;;;;5034414;28;20696;-41
2022/12/07 08:06:15;;;;;;;23.03;13.30;;;;;;;;;;5033334;28;20737;-39
2022/12/07 08:08:43;;;;;;;20.47;11.70;;;;;;;;;;5032642;28;20207;-40
2022/12/07 08:11:10;;;;;;;21.07;11.27;;;;;;;;;;5033178;28;20313;-39
2022/12/07 08:13:37;;;;;;;16.33;12.03;;;;;;;;;;5034594;28;20197;-39
2022/12/07 08:16:09;;;;;;;19.20;12.93;;;;;;;;;;5033842;28;20852;-40
2022/12/07 08:18:38;;;;;;;21.67;14.00;;;;;;;;;;5032779;28;20244;-39
2022/12/07 08:21:07;;;;;;;26.37;15.07;;;;;;;;;;5033975;28;20637;-39
2022/12/07 08:23:34;;;;;;;26.90;17.03;;;;;;;;;;5033803;28;20208;-45
2022/12/07 08:26:08;;;;;;;47.90;26.97;;;;;;;;;;5033680;28;20232;-39
2022/12/07 08:28:36;;;;;;;78.73;50.47;;;;;;;;;;5015130;28;20619;-42
2022/12/07 08:31:08;;;;;;;60.77;37.97;;;;;;;;;;5013325;28;20209;-42
2022/12/07 08:33:36;;;;;;;38.47;25.93;;;;;;;;;;5028225;28;20197;-40
2022/12/07 08:36:05;;;;;;;26.70;18.73;;;;;;;;;;5038136;28;20638;-40
2022/12/07 08:38:34;;;;;;;28.50;18.80;;;;;;;;;;5037176;28;20232;-40
2022/12/07 08:41:01;;;;;;;22.73;15.57;;;;;;;;;;5037534;28;20630;-39
2022/12/07 08:43:28;;;;;;;22.70;16.23;;;;;;;;;;5036869;28;20200;-41
2022/12/07 08:46:17;;;;;;;24.70;17.27;;;;;;;;;;5037742;28;20243;-40
2022/12/07 08:48:56;;;;;;;26.20;16.30;;;;;;;;;;5037613;28;20208;-39
2022/12/07 08:51:23;;;;;;;25.27;16.83;;;;;;;;;;5036070;28;20224;-40
2022/12/07 08:53:52;;;;;;;22.73;14.33;;;;;;;;;;5037872;28;20644;-39
2022/12/07 08:56:19;;;;;;;20.43;14.27;;;;;;;;;;5036993;28;20626;-43
2022/12/07 08:58:47;;;;;;;20.40;13.43;;;;;;;;;;5037753;28;20224;-39
2022/12/07 09:01:14;;;;;;;19.90;14.37;;;;;;;;;;5036906;28;20212;-41
2022/12/07 09:03:41;;;;;;;21.97;13.70;;;;;;;;;;5035699;28;20271;-40
2022/12/07 09:06:08;;;;;;;20.13;14.20;;;;;;;;;;5036427;28;20216;-39
2022/12/07 09:08:41;;;;;;;20.70;14.33;;;;;;;;;;5037281;28;20220;-39
2022/12/07 09:11:08;;;;;;;23.07;14.10;;;;;;;;;;5036578;28;20181;-39
2022/12/07 09:13:35;;;;;;;21.57;14.20;;;;;;;;;;5036343;28;20209;-40
2022/12/07 09:16:02;;;;;;;19.40;12.73;;;;;;;;;;5037209;28;20292;-39
2022/12/07 09:18:29;;;;;;;19.50;12.10;;;;;;;;;;5037025;28;20547;-39
2022/12/07 09:20:56;;;;;;;18.27;12.40;;;;;;;;;;5037346;28;20209;-40
2022/12/07 09:23:24;;;;;;;21.50;14.07;;;;;;;;;;5036963;28;20642;-39
2022/12/07 09:25:51;;;;;;;18.17;10.87;;;;;;;;;;5035489;28;20315;-40
2022/12/07 09:28:19;;;;;;;16.20;10.57;;;;;;;;;;5036898;28;20212;-39
2022/12/07 09:30:47;;;;;;;17.67;11.00;;;;;;;;;;5037076;28;20213;-39
2022/12/07 09:33:34;;;;;;;23.87;13.70;;;;;;;;;;5036357;28;20228;-40
2022/12/07 09:36:02;;;;;;;23.97;14.80;;;;;;;;;;5036898;28;20291;-39
2022/12/07 09:38:31;;;;;;;19.17;13.57;;;;;;;;;;5036001;28;20634;-39
2022/12/07 09:41:04;;;;;;;16.33;11.50;;;;;;;;;;5035465;28;20567;-40
2022/12/07 09:43:31;;;;;;;15.43;9.53;;;;;;;;;;5036070;28;20204;-39
2022/12/07 09:45:58;;;;;;;18.20;10.80;;;;;;;;;;5034724;28;20211;-40
2022/12/07 09:48:30;;;;;;;13.07;9.17;;;;;;;;;;5036441;28;20591;-40
2022/12/07 09:50:59;;;;;;;14.50;10.57;;;;;;;;;;5035507;28;20652;-39
2022/12/07 09:53:36;;;;;;;14.67;10.03;;;;;;;;;;5035254;28;20201;-39
2022/12/07 09:56:03;;;;;;;15.60;10.83;;;;;;;;;;5035553;28;20250;-39
2022/12/07 09:58:32;;;;;;;20.57;11.50;;;;;;;;;;5035919;28;20204;-39
2022/12/07 10:01:06;;;;;;;22.60;12.37;;;;;;;;;;5036013;28;20644;-39
2022/12/07 10:03:35;;;;;;;17.27;11.67;;;;;;;;;;5036494;28;20205;-39
2022/12/07 10:06:02;;;;;;;19.07;12.33;;;;;;;;;;5036164;28;20204;-39
2022/12/07 10:08:29;;;;;;;19.73;11.37;;;;;;;;;;5034873;28;20211;-39
2022/12/07 10:10:56;;;;;;;19.37;13.50;;;;;;;;;;5035850;28;20204;-39
2022/12/07 10:13:36;;;;;;;15.17;9.67;;;;;;;;;;5035830;28;20649;-41
2022/12/07 10:16:04;;;;;;;22.47;17.13;;;;;;;;;;5035869;28;20239;-40
2022/12/07 10:18:40;;;;;;;16.70;11.23;;;;;;;;;;5035495;28;20201;-39
2022/12/07 10:21:07;;;;;;;19.53;12.97;;;;;;;;;;5036334;28;20231;-39
2022/12/07 10:23:36;;;;;;;30.20;18.87;;;;;;;;;;5035988;28;20217;-40
2022/12/07 10:26:21;;;;;;;24.13;16.40;;;;;;;;;;5036289;28;20256;-39
2022/12/07 10:28:48;;;;;;;33.67;23.47;;;;;;;;;;5036225;28;20595;-39
2022/12/07 10:31:17;;;;;;;43.83;26.80;;;;;;;;;;5036113;28;20291;-40
2022/12/07 10:33:59;;;;;;;40.13;22.30;;;;;;;;;;5035032;28;20212;-41
2022/12/07 10:36:29;;;;;;;64.00;31.40;;;;;;;;;;5035987;28;20204;-39
2022/12/07 10:39:03;;;;;;;77.80;36.73;;;;;;;;;;5034154;28;20250;-39
2022/12/07 10:41:30;;;;;;;90.47;38.70;;;;;;;;;;5035531;28;20229;-39
2022/12/07 10:43:58;;;;;;;41.30;20.30;;;;;;;;;;5035649;28;20215;-39
2022/12/07 10:46:54;;;;;;;47.33;23.23;;;;;;;;;;5035878;28;20224;-39
2022/12/07 10:49:21;;;;;;;65.57;30.67;;;;;;;;;;5034524;28;20208;-39
2022/12/07 10:52:10;;;;;;;35.77;18.77;;;;;;;;;;5034980;28;20223;-40
2022/12/07 10:54:43;;;;;;;30.73;17.60;;;;;;;;;;5034792;28;20219;-39
2022/12/07 10:57:21;;;;;;;23.13;14.10;;;;;;;;;;5035508;28;20205;-39
2022/12/07 11:00:01;;;;;;;30.83;19.77;;;;;;;;;;5035196;28;20231;-39
2022/12/07 11:02:52;;;;;;;29.53;19.80;;;;;;;;;;5035448;28;20258;-39
2022/12/07 11:05:54;;;;;;;24.30;14.47;;;;;;;;;;5034582;28;20196;-39
2022/12/07 11:08:30;;;;;;;19.77;12.80;;;;;;;;;;4978022;28;20244;-41
2022/12/07 11:11:11;;;;;;;20.43;13.90;;;;;;;;;;4993320;28;20623;-39
2022/12/07 11:13:56;;;;;;;61.70;27.93;;;;;;;;;;4994293;28;20206;-40
2022/12/07 11:16:29;;;;;;;84.93;40.73;;;;;;;;;;4978499;28;20253;-39
2022/12/07 11:18:56;;;;;;;36.60;21.20;;;;;;;;;;4994196;28;20216;-39
2022/12/07 11:22:00;;;;;;;33.83;20.20;;;;;;;;;;4994247;28;20212;-40
2022/12/07 11:24:35;;;;;;;37.23;24.17;;;;;;;;;;4992833;28;20702;-39
2022/12/07 11:27:34;;;;;;;23.10;15.57;;;;;;;;;;4978081;28;20694;-39
2022/12/07 11:30:22;;;;;;;18.30;13.57;;;;;;;;;;4994108;28;20245;-39
2022/12/07 11:32:55;;;;;;;49.63;27.20;;;;;;;;;;4993248;28;20206;-39
2022/12/07 11:35:34;;;;;;;16.17;11.63;;;;;;;;;;4994587;28;20249;-40
2022/12/07 11:38:13;;;;;;;15.73;11.90;;;;;;;;;;4977937;28;20205;-39
2022/12/07 11:40:40;;;;;;;15.27;11.13;;;;;;;;;;4993609;28;20209;-39
2022/12/07 11:43:24;;;;;;;16.77;11.70;;;;;;;;;;4993627;28;20206;-39
2022/12/07 11:46:11;;;;;;;19.00;13.07;;;;;;;;;;5032414;28;20205;-40
2022/12/07 11:48:40;;;;;;;29.97;17.80;;;;;;;;;;5033564;28;20215;-39
2022/12/07 11:51:10;;;;;;;19.87;12.83;;;;;;;;;;5034435;28;20216;-39
2022/12/07 11:53:54;;;;;;;17.70;12.20;;;;;;;;;;5033875;28;20211;-39
2022/12/07 11:56:23;;;;;;;16.27;10.30;;;;;;;;;;5033132;28;20544;-41
2022/12/07 11:58:57;;;;;;;12.67;8.83;;;;;;;;;;5033905;28;20200;-39
2022/12/07 12:01:31;;;;;;;13.77;9.90;;;;;;;;;;5033093;28;20283;-41
2022/12/07 12:04:06;;;;;;;14.73;10.07;;;;;;;;;;5034479;28;20208;-39
2022/12/07 12:06:35;;;;;;;14.10;9.87;;;;;;;;;;5033383;28;20196;-40
2022/12/07 12:09:18;;;;;;;17.17;10.93;;;;;;;;;;5032920;28;20209;-40
2022/12/07 12:12:20;;;;;;;19.47;11.23;;;;;;;;;;5037262;28;20204;-40
2022/12/07 12:15:29;;;;;;;18.17;10.53;;;;;;;;;;5038185;28;20200;-40
2022/12/07 12:18:18;;;;;;;21.27;10.43;;;;;;;;;;5036921;28;20208;-41
2022/12/07 12:20:49;;;;;;;19.50;10.90;;;;;;;;;;5037392;28;20228;-41
2022/12/07 12:23:16;;;;;;;18.03;10.60;;;;;;;;;;5037770;28;20221;-40
2022/12/07 12:25:57;;;;;;;16.53;10.20;;;;;;;;;;5037401;28;20240;-39
2022/12/07 12:28:49;;;;;;;17.17;9.77;;;;;;;;;;5037489;28;20220;-40
2022/12/07 12:31:20;;;;;;;15.93;10.47;;;;;;;;;;5026383;28;20236;-39
2022/12/07 12:33:48;;;;;;;13.83;9.70;;;;;;;;;;5017392;28;20253;-40
2022/12/07 12:36:15;;;;;;;15.57;9.60;;;;;;;;;;5024237;28;20228;-40
2022/12/07 12:38:58;;;;;;;15.10;9.77;;;;;;;;;;5037507;28;20237;-40
2022/12/07 12:41:35;;;;;;;13.80;8.43;;;;;;;;;;5036626;28;20232;-41
2022/12/07 12:44:02;;;;;;;11.63;8.50;;;;;;;;;;5017598;28;20225;-39
2022/12/07 12:46:30;;;;;;;14.40;9.13;;;;;;;;;;5020896;28;20225;-41
2022/12/07 12:49:15;;;;;;;12.57;8.93;;;;;;;;;;5035843;28;20220;-41
2022/12/07 12:51:46;;;;;;;14.33;10.07;;;;;;;;;;5035967;28;20240;-41
2022/12/07 12:54:27;;;;;;;14.23;9.80;;;;;;;;;;5037076;28;20232;-40
2022/12/07 12:57:18;;;;;;;14.47;9.57;;;;;;;;;;5035584;28;20224;-45
2022/12/07 12:59:51;;;;;;;16.87;9.90;;;;;;;;;;5035621;28;20232;-40
2022/12/07 13:02:24;;;;;;;15.33;10.67;;;;;;;;;;5034728;28;20232;-40
2022/12/07 13:05:07;;;;;;;17.77;10.53;;;;;;;;;;5037238;28;20208;-40
2022/12/07 13:07:47;;;;;;;16.70;10.43;;;;;;;;;;5036403;28;20221;-42
2022/12/07 13:10:23;;;;;;;18.37;11.47;;;;;;;;;;5036368;28;20232;-39
2022/12/07 13:12:57;;;;;;;18.60;12.70;;;;;;;;;;5036719;28;20669;-40
2022/12/07 13:15:34;;;;;;;20.80;12.73;;;;;;;;;;5036649;28;20294;-39
2022/12/07 13:18:04;;;;;;;25.17;15.67;;;;;;;;;;5018603;28;20232;-40
2022/12/07 13:20:47;;;;;;;29.37;17.07;;;;;;;;;;5015739;28;20247;-40
2022/12/07 13:23:19;;;;;;;31.23;18.53;;;;;;;;;;5016616;28;20233;-39
2022/12/07 13:26:00;;;;;;;28.47;19.93;;;;;;;;;;5015759;28;20237;-40
2022/12/07 13:28:35;;;;;;;32.30;19.90;;;;;;;;;;5016632;28;20291;-40
2022/12/07 13:31:30;;;;;;;28.07;17.37;;;;;;;;;;5015274;28;20536;-40
2022/12/07 13:33:57;;;;;;;25.43;15.27;;;;;;;;;;5016223;28;20225;-44
2022/12/07 13:36:27;;;;;;;21.23;14.23;;;;;;;;;;5016831;28;20287;-40
2022/12/07 13:39:00;;;;;;;20.00;13.33;;;;;;;;;;5027876;28;20229;-45
2022/12/07 13:41:29;;;;;;;22.33;13.73;;;;;;;;;;5035462;28;20228;-39
2022/12/07 13:43:59;;;;;;;23.97;14.50;;;;;;;;;;5035037;28;20221;-43
2022/12/07 13:46:33;;;;;;;19.33;13.07;;;;;;;;;;5035227;28;20240;-40
2022/12/07 13:49:00;;;;;;;20.17;13.57;;;;;;;;;;5033061;28;20297;-42
2022/12/07 13:51:28;;;;;;;25.07;14.90;;;;;;;;;;5034398;28;20228;-40
2022/12/07 13:54:00;;;;;;;24.47;15.07;;;;;;;;;;5033966;28;20239;-40
2022/12/07 13:56:32;;;;;;;24.30;15.23;;;;;;;;;;5035999;28;20236;-40
2022/12/07 13:59:00;;;;;;;24.30;15.33;;;;;;;;;;5034832;28;20232;-42
2022/12/07 14:01:30;;;;;;;24.20;15.07;;;;;;;;;;5034556;28;20228;-39
2022/12/07 14:04:17;;;;;;;22.87;14.37;;;;;;;;;;5035049;28;20221;-40
2022/12/07 14:06:50;;;;;;;25.67;14.87;;;;;;;;;;5035870;28;20290;-39
2022/12/07 14:09:22;;;;;;;22.93;14.80;;;;;;;;;;5033598;28;20239;-41
2022/12/07 14:11:50;;;;;;;23.50;14.73;;;;;;;;;;5035822;28;20224;-39
2022/12/07 14:14:29;;;;;;;22.57;14.63;;;;;;;;;;5035239;28;20217;-42
2022/12/07 14:17:11;;;;;;;22.93;14.87;;;;;;;;;;5025459;28;20221;-39
2022/12/07 14:19:54;;;;;;;24.17;15.13;;;;;;;;;;5015318;28;20221;-40
2022/12/07 14:22:23;;;;;;;25.60;15.23;;;;;;;;;;5015175;28;20682;-39
2022/12/07 14:24:57;;;;;;;20.93;13.40;;;;;;;;;;5015388;28;20237;-39
2022/12/07 14:27:30;;;;;;;22.33;13.53;;;;;;;;;;5019003;28;20693;-41
2022/12/07 14:29:58;;;;;;;41.07;22.27;;;;;;;;;;5033083;28;20228;-45
2022/12/07 14:32:28;;;;;;;70.17;29.13;;;;;;;;;;5033288;28;20217;-42
2022/12/07 14:35:08;;;;;;;70.20;28.13;;;;;;;;;;5034500;28;20549;-45
2022/12/07 14:37:35;;;;;;;85.87;32.33;;;;;;;;;;5035203;28;20224;-40
2022/12/07 14:40:02;;;;;;;88.07;36.17;;;;;;;;;;5034947;28;20233;-41
2022/12/07 14:42:30;;;;;;;61.27;23.73;;;;;;;;;;5034533;28;20306;-44
2022/12/07 14:44:57;;;;;;;80.20;31.43;;;;;;;;;;5034132;28;20225;-48
2022/12/07 14:47:26;;;;;;;77.67;28.77;;;;;;;;;;5034663;28;20260;-40
2022/12/07 14:50:15;;;;;;;66.73;26.77;;;;;;;;;;5034897;28;20236;-40